createdAt,value
2022-12-23T00:02:07.499Z,100459.63
2022-12-23T00:04:34.142Z,100465.91
2022-12-23T00:07:00.689Z,100472.19
2022-12-23T00:09:27.757Z,100481.97
2022-12-23T00:12:12.882Z,100491.75
2022-12-23T00:14:58.168Z,100493.75
2022-12-23T00:17:25.242Z,100489.56
2022-12-23T00:19:51.773Z,100498.50
2022-12-23T00:22:19.131Z,100496.84
2022-12-23T00:24:46.202Z,100500.34
2022-12-23T00:27:12.798Z,100503.97
2022-12-23T00:29:39.826Z,100510.13
2022-12-23T00:32:06.980Z,100505.78
2022-12-23T00:34:34.046Z,100513.94
2022-12-23T00:37:00.617Z,100529.03
2022-12-23T00:39:45.644Z,100523.72
2022-12-23T00:42:30.547Z,100529.34
2022-12-23T00:45:15.660Z,100525.69
2022-12-23T00:48:05.391Z,100513.56
2022-12-23T00:50:35.118Z,100524.84
2022-12-23T00:53:02.241Z,100532.00
2022-12-23T00:55:28.779Z,100532.13
2022-12-23T00:57:55.870Z,100537.59
2022-12-23T01:00:43.043Z,100537.59
2022-12-23T01:03:32.387Z,100542.06
2022-12-23T01:06:00.873Z,100551.03
2022-12-23T01:08:28.402Z,100537.06
2022-12-23T01:10:55.741Z,100545.16
2022-12-23T01:13:22.881Z,100539.72
2022-12-23T01:15:49.898Z,100552.16
2022-12-23T01:18:16.898Z,100552.16
2022-12-23T01:20:43.965Z,100552.16
2022-12-23T01:23:10.518Z,100553.13
2022-12-23T01:25:37.076Z,100554.94
2022-12-23T01:28:03.803Z,100552.28
2022-12-23T01:30:30.367Z,100562.91
2022-12-23T01:32:56.900Z,100568.22
2022-12-23T01:35:23.480Z,100577.19
2022-12-23T01:37:50.564Z,100574.69
2022-12-23T01:40:17.217Z,100574.69
2022-12-23T01:42:43.742Z,100582.81
2022-12-23T01:45:31.039Z,100588.94
2022-12-23T01:48:09.945Z,100596.22
2022-12-23T01:50:51.424Z,100602.38
2022-12-23T01:53:22.245Z,100591.91
2022-12-23T01:55:57.275Z,100595.38
2022-12-23T01:58:35.481Z,100591.91
2022-12-23T02:01:20.924Z,100591.06
2022-12-23T02:03:51.065Z,100609.78
2022-12-23T02:06:49.563Z,100612.31
2022-12-23T02:09:23.709Z,100618.59
2022-12-23T02:12:26.682Z,100624.03
2022-12-23T02:15:37.193Z,100630.34
2022-12-23T02:18:07.288Z,100628.50
2022-12-23T02:21:01.847Z,100633.13
2022-12-23T02:23:56.957Z,100641.28
2022-12-23T02:26:42.093Z,100641.28
2022-12-23T02:29:38.402Z,100636.94
2022-12-23T02:32:19.105Z,100644.06
2022-12-23T02:35:00.591Z,100650.22
2022-12-23T02:37:29.897Z,100661.66
2022-12-23T02:39:59.792Z,100659.31
2022-12-23T02:42:35.929Z,100660.13
2022-12-23T02:45:19.170Z,100662.66
2022-12-23T02:47:54.316Z,100661.81
2022-12-23T02:50:28.704Z,100661.41
2022-12-23T02:52:58.653Z,100671.44
2022-12-23T02:55:30.588Z,100666.28
2022-12-23T02:58:00.039Z,100674.41
2022-12-23T03:00:26.705Z,100677.88
2022-12-23T03:02:53.891Z,100687.38
2022-12-23T03:05:37.838Z,100677.47
2022-12-23T03:08:07.586Z,100688.63
2022-12-23T03:10:43.307Z,100694.66
2022-12-23T03:13:22.260Z,100687.81
2022-12-23T03:16:14.307Z,100688.63
2022-12-23T03:19:03.328Z,100695.91
2022-12-23T03:22:08.563Z,100697.59
2022-12-23T03:24:45.655Z,100694.09
2022-12-23T03:27:38.884Z,100691.44
2022-12-23T03:30:09.390Z,100695.06
2022-12-23T03:32:44.984Z,100687.53
2022-12-23T03:35:16.227Z,100687.41
2022-12-23T03:37:46.713Z,100699.41
2022-12-23T03:40:28.791Z,100695.91
2022-12-23T03:43:04.523Z,100699.53
2022-12-23T03:45:42.097Z,100693.25
2022-12-23T03:48:17.072Z,100691.72
2022-12-23T03:50:45.310Z,100702.19
2022-12-23T03:53:32.903Z,100696.88
2022-12-23T03:56:04.679Z,100686.28
2022-12-23T03:58:40.275Z,100701.91
2022-12-23T04:01:22.642Z,100706.25
2022-12-23T04:04:15.220Z,100723.69
2022-12-23T04:07:00.719Z,100710.00
2022-12-23T04:09:29.297Z,100723.84
2022-12-23T04:11:58.085Z,100722.03
2022-12-23T04:14:24.741Z,100724.69
2022-12-23T04:16:55.510Z,100734.16
2022-12-23T04:19:22.221Z,100733.47
2022-12-23T04:21:48.815Z,100746.44
2022-12-23T04:24:15.645Z,100753.41
2022-12-23T04:26:42.245Z,100745.59
2022-12-23T04:29:09.267Z,100756.06
2022-12-23T04:31:35.856Z,100754.41
2022-12-23T04:34:02.427Z,100752.44
2022-12-23T04:36:29.023Z,100757.75
2022-12-23T04:38:56.066Z,100755.09
2022-12-23T04:41:24.171Z,100761.25
2022-12-23T04:43:53.063Z,100749.09
2022-12-23T04:46:20.982Z,100755.78
2022-12-23T04:48:48.191Z,100746.97
2022-12-23T04:51:14.763Z,100739.31
2022-12-23T04:53:41.348Z,100737.19
2022-12-23T04:56:08.012Z,100736.38
2022-12-23T04:58:34.555Z,100739.84
2022-12-23T05:01:07.228Z,100735.38
2022-12-23T05:03:34.876Z,100734.56
2022-12-23T05:06:02.286Z,100723.94
2022-12-23T05:08:29.352Z,100730.91
2022-12-23T05:10:56.257Z,100729.25
2022-12-23T05:13:22.823Z,100723.94
2022-12-23T05:15:51.918Z,100728.25
2022-12-23T05:18:19.970Z,100725.38
2022-12-23T05:20:47.640Z,100735.38
2022-12-23T05:23:14.718Z,100736.22
2022-12-23T05:25:41.261Z,100738.88
2022-12-23T05:28:09.459Z,100743.22
2022-12-23T05:30:36.891Z,100746.97
2022-12-23T05:33:03.529Z,100749.34
2022-12-23T05:35:30.151Z,100746.69
2022-12-23T05:37:57.802Z,100758.31
2022-12-23T05:40:29.373Z,100745.44
2022-12-23T05:42:58.268Z,100745.59
2022-12-23T05:45:24.845Z,100761.78
2022-12-23T05:47:51.871Z,100766.25
2022-12-23T05:50:18.659Z,100758.31
2022-12-23T05:52:45.800Z,100757.47
2022-12-23T05:55:12.371Z,100759.28
2022-12-23T05:57:39.375Z,100758.31
2022-12-23T06:00:06.641Z,100756.06
2022-12-23T06:02:33.412Z,100760.13
2022-12-23T06:05:00.612Z,100758.44
2022-12-23T06:07:27.144Z,100749.78
2022-12-23T06:09:53.755Z,100753.97
2022-12-23T06:12:20.860Z,100759.13
2022-12-23T06:14:47.949Z,100759.13
2022-12-23T06:17:14.605Z,100767.09
2022-12-23T06:19:41.621Z,100768.91
2022-12-23T06:22:08.207Z,100766.25
2022-12-23T06:24:34.760Z,100759.97
2022-12-23T06:27:01.864Z,100760.81
2022-12-23T06:29:29.023Z,100762.50
2022-12-23T06:31:55.565Z,100751.03
2022-12-23T06:34:22.222Z,100744.88
2022-12-23T06:36:48.856Z,100755.50
2022-12-23T06:39:15.475Z,100747.53
2022-12-23T06:41:42.072Z,100751.16
2022-12-23T06:44:09.416Z,100760.94
2022-12-23T06:46:36.165Z,100765.41
2022-12-23T06:49:07.500Z,100768.91
2022-12-23T06:51:37.556Z,100772.41
2022-12-23T06:54:04.832Z,100770.72
2022-12-23T06:56:33.427Z,100775.91
2022-12-23T06:58:59.952Z,100776.75
2022-12-23T07:01:26.690Z,100774.91
2022-12-23T07:03:53.330Z,100774.09
2022-12-23T07:06:19.959Z,100769.75
2022-12-23T07:08:46.553Z,100778.41
2022-12-23T07:11:13.114Z,100766.97
2022-12-23T07:13:40.218Z,100777.56
2022-12-23T07:16:08.900Z,100776.75
2022-12-23T07:18:35.957Z,100793.50
2022-12-23T07:21:03.466Z,100793.38
2022-12-23T07:23:30.816Z,100794.34
2022-12-23T07:25:57.532Z,100801.59
2022-12-23T07:28:24.282Z,100813.75
2022-12-23T07:30:51.320Z,100807.63
2022-12-23T07:33:17.877Z,100804.41
2022-12-23T07:35:44.425Z,100803.44
2022-12-23T07:38:11.598Z,100807.63
2022-12-23T07:40:38.137Z,100802.31
2022-12-23T07:43:05.657Z,100812.78
2022-12-23T07:45:32.306Z,100805.66
2022-12-23T07:48:01.202Z,100789.03
2022-12-23T07:50:28.237Z,100793.38
2022-12-23T07:52:54.992Z,100779.25
2022-12-23T07:55:21.819Z,100781.91
2022-12-23T07:57:50.010Z,100771.56
2022-12-23T08:00:17.516Z,100773.94
2022-12-23T08:02:44.349Z,100779.25
2022-12-23T08:05:11.830Z,100777.56
2022-12-23T08:07:39.387Z,100772.28
2022-12-23T08:10:06.898Z,100770.44
2022-12-23T08:12:34.121Z,100765.13
2022-12-23T08:15:01.169Z,100765.13
2022-12-23T08:17:30.046Z,100765.97
2022-12-23T08:19:57.231Z,100758.00
2022-12-23T08:22:24.509Z,100758.16
2022-12-23T08:24:52.590Z,100755.06
2022-12-23T08:27:19.553Z,100749.34
2022-12-23T08:29:46.128Z,100756.06
2022-12-23T08:32:13.200Z,100766.66
2022-12-23T08:34:40.311Z,100760.53
2022-12-23T08:37:07.838Z,100761.22
2022-12-23T08:39:34.508Z,100767.34
2022-12-23T08:42:01.119Z,100763.03
2022-12-23T08:44:28.170Z,100751.59
2022-12-23T08:46:55.996Z,100751.41
2022-12-23T08:49:22.708Z,100734.66
2022-12-23T08:51:49.614Z,100729.38
2022-12-23T08:54:17.367Z,100716.88
2022-12-23T08:56:44.526Z,100725.88
2022-12-23T08:59:19.236Z,100719.03
2022-12-23T09:01:48.202Z,100725.03
2022-12-23T09:04:14.951Z,100718.75
2022-12-23T09:06:43.333Z,100718.06
2022-12-23T09:09:12.195Z,100716.88
2022-12-23T09:11:39.373Z,100714.56
2022-12-23T09:14:08.632Z,100697.66
2022-12-23T09:16:35.395Z,100716.88
2022-12-23T09:19:02.206Z,100707.13
2022-12-23T09:21:28.872Z,100717.72
2022-12-23T09:23:58.698Z,100710.78
2022-12-23T09:26:28.917Z,100708.94
2022-12-23T09:28:57.007Z,100709.75
2022-12-23T09:31:29.287Z,100708.94
2022-12-23T09:33:59.680Z,100698.63
2022-12-23T09:36:26.251Z,100701.97
2022-12-23T09:38:57.712Z,100699.97
2022-12-23T09:42:01.717Z,100694.69
2022-12-23T09:45:01.923Z,100696.50
2022-12-23T09:47:31.475Z,100688.53
2022-12-23T09:50:04.491Z,100689.53
2022-12-23T09:52:54.309Z,100682.38
2022-12-23T09:55:24.466Z,100680.56
2022-12-23T09:57:54.584Z,100673.44
2022-12-23T10:00:22.037Z,100670.97
2022-12-23T10:03:22.402Z,100663.66
2022-12-23T10:06:09.442Z,100654.00
2022-12-23T10:08:38.988Z,100644.09
2022-12-23T10:11:14.146Z,100640.44
2022-12-23T10:13:54.805Z,100633.59
2022-12-23T10:16:30.219Z,100633.59
2022-12-23T10:19:04.415Z,100631.66
2022-12-23T10:21:46.911Z,100624.38
2022-12-23T10:24:26.257Z,100626.88
2022-12-23T10:27:00.096Z,100629.53
2022-12-23T10:29:31.200Z,100622.56
2022-12-23T10:32:24.104Z,100627.72
2022-12-23T10:35:18.775Z,100617.09
2022-12-23T10:37:55.256Z,100616.13
2022-12-23T10:40:25.925Z,100616.94
2022-12-23T10:43:12.674Z,100608.16
2022-12-23T10:46:16.541Z,100597.53
2022-12-23T10:48:58.787Z,100601.16
2022-12-23T10:51:34.204Z,100604.66
2022-12-23T10:54:07.291Z,100595.72
2022-12-23T10:56:34.145Z,100593.06
2022-12-23T10:59:02.155Z,100599.34
2022-12-23T11:01:30.966Z,100606.19
2022-12-23T11:04:13.311Z,100583.28
2022-12-23T11:06:44.477Z,100580.47
2022-12-23T11:09:38.548Z,100566.34
2022-12-23T11:12:08.262Z,100568.19
2022-12-23T11:14:54.763Z,100567.19
2022-12-23T11:17:27.487Z,100559.22
2022-12-23T11:20:16.901Z,100547.91
2022-12-23T11:22:52.091Z,100551.25
2022-12-23T11:25:30.186Z,100549.59
2022-12-23T11:28:12.313Z,100548.59
2022-12-23T11:30:56.209Z,100537.97
2022-12-23T11:33:36.413Z,100532.00
2022-12-23T11:36:12.465Z,100537.84
2022-12-23T11:38:47.989Z,100523.03
2022-12-23T11:41:20.511Z,100507.09
2022-12-23T11:44:01.751Z,100500.28
2022-12-23T11:46:31.402Z,100499.16
2022-12-23T11:49:13.419Z,100482.53
2022-12-23T11:51:40.022Z,100486.69
2022-12-23T11:54:06.571Z,100480.41
2022-12-23T11:56:40.502Z,100472.06
2022-12-23T11:59:26.871Z,100473.44
2022-12-23T12:01:54.081Z,100461.00
2022-12-23T12:04:24.397Z,100461.13
2022-12-23T12:06:56.557Z,100446.50
2022-12-23T12:09:24.848Z,100438.38
2022-12-23T12:12:05.677Z,100435.88
2022-12-23T12:14:42.780Z,100442.41
2022-12-23T12:17:48.352Z,100431.78
2022-12-23T12:20:22.931Z,100417.00
2022-12-23T12:22:54.755Z,100420.63
2022-12-23T12:25:23.667Z,100416.00
2022-12-23T12:27:56.328Z,100409.84
2022-12-23T12:30:23.195Z,100407.19
2022-12-23T12:32:56.071Z,100405.22
2022-12-23T12:35:43.024Z,100399.25
2022-12-23T12:38:24.022Z,100395.59
2022-12-23T12:41:03.290Z,100394.63
2022-12-23T12:43:31.716Z,100382.31
2022-12-23T12:46:24.852Z,100377.84
2022-12-23T12:48:56.973Z,100371.69
2022-12-23T12:51:23.973Z,100362.91
2022-12-23T12:54:07.143Z,100357.59
2022-12-23T12:56:41.403Z,100349.47
2022-12-23T12:59:17.814Z,100344.47
2022-12-23T13:02:16.825Z,100340.69
2022-12-23T13:05:09.262Z,100343.47
2022-12-23T13:08:02.248Z,100339.84
2022-12-23T13:10:28.713Z,100331.03
2022-12-23T13:13:07.109Z,100332.88
2022-12-23T13:15:49.304Z,100337.34
2022-12-23T13:18:52.116Z,100339.84
2022-12-23T13:21:25.296Z,100337.03
2022-12-23T13:24:12.055Z,100333.53
2022-12-23T13:27:14.012Z,100331.03
2022-12-23T13:30:02.772Z,100332.56
2022-12-23T13:32:56.620Z,100330.88
2022-12-23T13:35:46.727Z,100334.53
2022-12-23T13:38:34.844Z,100315.56
2022-12-23T13:41:19.842Z,100314.13
2022-12-23T13:43:55.113Z,100308.81
2022-12-23T13:46:32.944Z,100308.28
2022-12-23T13:49:07.404Z,100299.19
2022-12-23T13:51:52.708Z,100286.75
2022-12-23T13:54:37.649Z,100287.56
2022-12-23T13:57:08.658Z,100279.09
2022-12-23T13:59:43.580Z,100270.81
2022-12-23T14:02:37.734Z,100269.97
2022-12-23T14:05:09.259Z,100269.97
2022-12-23T14:07:38.389Z,100269.00
2022-12-23T14:10:19.756Z,100269.81
2022-12-23T14:12:47.575Z,100264.81
2022-12-23T14:15:14.780Z,100263.69
2022-12-23T14:18:04.516Z,100256.03
2022-12-23T14:20:55.292Z,100256.56
2022-12-23T14:23:52.260Z,100247.59
2022-12-23T14:26:19.242Z,100249.25
2022-12-23T14:28:57.962Z,100241.94
2022-12-23T14:31:42.177Z,100241.31
2022-12-23T14:34:18.058Z,100235.66
2022-12-23T14:37:03.166Z,100229.66
2022-12-23T14:39:34.042Z,100222.38
2022-12-23T14:42:06.516Z,100209.09
2022-12-23T14:44:37.704Z,100203.63
2022-12-23T14:47:05.821Z,100212.41
2022-12-23T14:49:43.393Z,100206.44
2022-12-23T14:52:38.031Z,100218.56
2022-12-23T14:55:35.379Z,100219.41
2022-12-23T14:58:36.505Z,100224.72
2022-12-23T15:01:31.383Z,100213.25
2022-12-23T15:04:01.800Z,100217.56
2022-12-23T15:06:35.875Z,100217.56
2022-12-23T15:09:04.032Z,100203.47
2022-12-23T15:11:33.737Z,100203.47
2022-12-23T15:14:07.004Z,100213.09
2022-12-23T15:16:40.361Z,100215.75
2022-12-23T15:19:25.515Z,100227.06
2022-12-23T15:22:18.009Z,100232.38
2022-12-23T15:24:48.202Z,100239.50
2022-12-23T15:27:28.746Z,100241.16
2022-12-23T15:29:56.477Z,100244.66
2022-12-23T15:32:25.046Z,100241.16
2022-12-23T15:34:53.565Z,100246.31
2022-12-23T15:37:28.179Z,100235.03
2022-12-23T15:40:04.485Z,100236.56
2022-12-23T15:42:38.344Z,100235.69
2022-12-23T15:45:30.968Z,100237.66
2022-12-23T15:47:58.594Z,100225.69
2022-12-23T15:50:25.510Z,100235.03
2022-12-23T15:52:54.800Z,100238.34
2022-12-23T15:55:32.387Z,100248.00
2022-12-23T15:58:00.869Z,100248.97
2022-12-23T16:00:36.220Z,100243.66
2022-12-23T16:03:07.706Z,100240.16
2022-12-23T16:05:38.285Z,100232.09
2022-12-23T16:08:28.561Z,100232.91
2022-12-23T16:11:18.724Z,100230.38
2022-12-23T16:14:00.045Z,100217.72
2022-12-23T16:16:42.291Z,100221.47
2022-12-23T16:19:45.269Z,100218.81
2022-12-23T16:22:20.891Z,100224.94
2022-12-23T16:24:52.179Z,100217.97
2022-12-23T16:27:32.003Z,100213.78
2022-12-23T16:30:02.233Z,100221.47
2022-12-23T16:32:28.870Z,100213.50
2022-12-23T16:34:55.961Z,100208.31
2022-12-23T16:37:23.024Z,100216.16
2022-12-23T16:39:49.555Z,100225.78
2022-12-23T16:42:16.822Z,100227.88
2022-12-23T16:44:43.370Z,100231.09
2022-12-23T16:47:17.344Z,100217.81
2022-12-23T16:49:43.925Z,100228.44
2022-12-23T16:52:14.204Z,100230.38
2022-12-23T16:54:42.505Z,100242.81
2022-12-23T16:57:10.473Z,100242.97
2022-12-23T16:59:38.918Z,100239.22
2022-12-23T17:02:18.485Z,100239.22
2022-12-23T17:04:45.095Z,100228.59
2022-12-23T17:07:12.242Z,100218.94
2022-12-23T17:09:38.769Z,100222.56
2022-12-23T17:12:05.798Z,100222.56
2022-12-23T17:14:32.350Z,100223.72
2022-12-23T17:16:58.951Z,100215.75
2022-12-23T17:19:29.263Z,100218.72
2022-12-23T17:22:00.847Z,100226.53
2022-12-23T17:24:27.937Z,100220.06
2022-12-23T17:26:56.887Z,100220.06
2022-12-23T17:29:24.115Z,100230.69
2022-12-23T17:31:51.995Z,100220.06
2022-12-23T17:34:21.803Z,100209.09
2022-12-23T17:36:50.693Z,100229.88
2022-12-23T17:39:18.146Z,100229.50
2022-12-23T17:41:44.934Z,100232.53
2022-12-23T17:44:14.464Z,100225.69
2022-12-23T17:46:41.150Z,100216.38
2022-12-23T17:49:08.377Z,100221.53
2022-12-23T17:51:35.588Z,100219.41
2022-12-23T17:54:02.237Z,100217.06
2022-12-23T17:56:29.018Z,100221.53
2022-12-23T17:58:56.181Z,100223.03
2022-12-23T18:01:31.545Z,100224.03
2022-12-23T18:03:59.530Z,100231.00
2022-12-23T18:06:28.119Z,100232.84
2022-12-23T18:08:55.301Z,100226.16
2022-12-23T18:11:36.265Z,100237.16
2022-12-23T18:14:04.288Z,100241.63
2022-12-23T18:16:31.621Z,100239.97
2022-12-23T18:18:58.731Z,100234.66
2022-12-23T18:21:29.509Z,100238.97
2022-12-23T18:23:59.608Z,100229.19
2022-12-23T18:26:26.935Z,100228.34
2022-12-23T18:28:54.220Z,100237.97
2022-12-23T18:31:24.105Z,100233.00
2022-12-23T18:33:51.731Z,100240.66
2022-12-23T18:36:28.395Z,100240.66
2022-12-23T18:38:55.430Z,100238.16
2022-12-23T18:41:22.686Z,100238.81
2022-12-23T18:43:50.752Z,100233.81
2022-12-23T18:46:19.960Z,100231.16
2022-12-23T18:48:46.691Z,100234.34
2022-12-23T18:51:15.424Z,100235.19
2022-12-23T18:53:43.558Z,100237.81
2022-12-23T18:56:21.169Z,100242.97
2022-12-23T18:58:48.341Z,100248.44
2022-12-23T19:01:16.648Z,100248.44
2022-12-23T19:03:44.263Z,100255.59
2022-12-23T19:06:14.048Z,100261.41
2022-12-23T19:08:41.942Z,100262.41
2022-12-23T19:11:18.071Z,100259.59
2022-12-23T19:13:45.125Z,100260.47
2022-12-23T19:16:19.901Z,100255.16
2022-12-23T19:18:47.977Z,100255.59
2022-12-23T19:21:15.578Z,100265.06
2022-12-23T19:23:43.096Z,100266.59
2022-12-23T19:26:11.578Z,100264.91
2022-12-23T19:28:39.238Z,100257.25
2022-12-23T19:31:13.211Z,100264.06
2022-12-23T19:33:41.051Z,100255.97
2022-12-23T19:36:12.551Z,100269.38
2022-12-23T19:38:39.645Z,100272.75
2022-12-23T19:41:07.415Z,100279.88
2022-12-23T19:43:35.785Z,100285.31
2022-12-23T19:46:06.266Z,100282.53
2022-12-23T19:48:33.163Z,100289.50
2022-12-23T19:51:11.143Z,100284.19
2022-12-23T19:53:38.963Z,100290.63
2022-12-23T19:56:08.662Z,100288.81
2022-12-23T19:58:38.258Z,100307.09
2022-12-23T20:01:10.440Z,100312.41
2022-12-23T20:03:37.883Z,100301.97
2022-12-23T20:06:06.687Z,100312.25
2022-12-23T20:08:34.749Z,100311.41
2022-12-23T20:11:11.240Z,100322.03
2022-12-23T20:13:38.490Z,100322.84
2022-12-23T20:16:06.908Z,100328.16
2022-12-23T20:18:34.190Z,100329.84
2022-12-23T20:21:01.631Z,100330.00
2022-12-23T20:23:29.190Z,100336.97
2022-12-23T20:25:55.976Z,100328.31
2022-12-23T20:28:22.834Z,100340.47
2022-12-23T20:31:04.505Z,100345.78
2022-12-23T20:33:31.181Z,100341.44
2022-12-23T20:35:57.832Z,100348.44
2022-12-23T20:38:24.454Z,100346.13
2022-12-23T20:40:51.048Z,100358.22
2022-12-23T20:43:17.577Z,100362.53
2022-12-23T20:45:45.235Z,100357.22
2022-12-23T20:48:12.233Z,100362.53
2022-12-23T20:50:42.496Z,100353.75
2022-12-23T20:53:10.460Z,100368.84
2022-12-23T20:55:36.986Z,100368.00
2022-12-23T20:58:23.504Z,100373.31
2022-12-23T21:00:51.039Z,100371.00
2022-12-23T21:03:18.192Z,100383.09
2022-12-23T21:05:44.777Z,100386.59
2022-12-23T21:08:11.356Z,100386.75
2022-12-23T21:10:39.449Z,100395.75
2022-12-23T21:13:06.006Z,100390.25
2022-12-23T21:15:33.105Z,100405.19
2022-12-23T21:18:00.188Z,100401.69
2022-12-23T21:20:27.683Z,100398.91
2022-12-23T21:22:54.705Z,100401.88
2022-12-23T21:25:21.756Z,100411.34
2022-12-23T21:27:48.355Z,100416.66
2022-12-23T21:30:16.053Z,100423.63
2022-12-23T21:32:43.148Z,100428.94
2022-12-23T21:35:10.149Z,100432.59
2022-12-23T21:37:36.773Z,100436.91
2022-12-23T21:40:04.462Z,100437.22
2022-12-23T21:42:31.059Z,100452.00
2022-12-23T21:44:57.610Z,100448.22
2022-12-23T21:47:24.202Z,100456.19
2022-12-23T21:49:51.962Z,100457.03
2022-12-23T21:52:18.524Z,100461.66
2022-12-23T21:54:45.558Z,100468.47
2022-12-23T21:57:12.603Z,100470.28
2022-12-23T21:59:39.188Z,100468.63
2022-12-23T22:02:05.836Z,100476.44
2022-12-23T22:04:33.012Z,100477.44
2022-12-23T22:06:59.583Z,100491.41
2022-12-23T22:09:26.184Z,100491.53
2022-12-23T22:11:53.227Z,100497.00
2022-12-23T22:14:20.379Z,100503.69
2022-12-23T22:16:47.035Z,100500.50
2022-12-23T22:19:13.889Z,100506.66
2022-12-23T22:21:42.394Z,100510.97
2022-12-23T22:24:09.161Z,100522.28
2022-12-23T22:26:36.023Z,100529.25
2022-12-23T22:29:05.183Z,100532.91
2022-12-23T22:31:34.514Z,100531.09
2022-12-23T22:34:01.677Z,100529.25
2022-12-23T22:36:28.921Z,100524.94
2022-12-23T22:38:57.931Z,100534.56
2022-12-23T22:41:27.917Z,100531.09
2022-12-23T22:43:54.971Z,100539.22
2022-12-23T22:46:21.657Z,100546.19
2022-12-23T22:48:48.280Z,100532.06
2022-12-23T22:51:18.327Z,100539.88
2022-12-23T22:53:44.958Z,100547.03
2022-12-23T22:56:13.670Z,100545.19
2022-12-23T22:58:40.745Z,100556.13
2022-12-23T23:01:16.478Z,100554.84
2022-12-23T23:03:43.025Z,100563.94
2022-12-23T23:06:10.715Z,100561.28
2022-12-23T23:08:37.786Z,100567.75
2022-12-23T23:11:04.959Z,100568.03
2022-12-23T23:13:34.799Z,100582.31
2022-12-23T23:16:02.879Z,100564.31
2022-12-23T23:18:30.972Z,100582.63
2022-12-23T23:20:57.649Z,100580.94
2022-12-23T23:23:24.708Z,100582.06
2022-12-23T23:25:51.697Z,100591.00
2022-12-23T23:28:18.765Z,100587.97
2022-12-23T23:30:45.296Z,100596.75
2022-12-23T23:33:12.073Z,100596.91
2022-12-23T23:35:38.729Z,100605.34
2022-12-23T23:38:07.066Z,100614.66
2022-12-23T23:40:33.655Z,100607.72
2022-12-23T23:43:00.774Z,100621.56
2022-12-23T23:45:28.167Z,100617.94
2022-12-23T23:47:55.323Z,100625.22
2022-12-23T23:50:22.294Z,100636.53
2022-12-23T23:52:48.838Z,100633.88
2022-12-23T23:55:15.584Z,100640.84
2022-12-23T23:57:42.140Z,100642.81
